sensor_id;sensor_type;location;lat;lon;timestamp;P1;durP1;ratioP1;P2;durP2;ratioP2
18893;SDS011;9579;49.488;8.226;2024-03-08T00:00:34;21.13;;;19.13;;
18893;SDS011;9579;49.488;8.226;2024-03-08T00:03:23;21.07;;;18.90;;
18893;SDS011;9579;49.488;8.226;2024-03-08T00:06:10;20.93;;;18.97;;
18893;SDS011;9579;49.488;8.226;2024-03-08T00:08:57;20.60;;;18.70;;
18893;SDS011;9579;49.488;8.226;2024-03-08T00:11:44;20.60;;;18.70;;
18893;SDS011;9579;49.488;8.226;2024-03-08T00:14:33;20.13;;;18.33;;
18893;SDS011;9579;49.488;8.226;2024-03-08T00:17:20;21.23;;;19.13;;
18893;SDS011;9579;49.488;8.226;2024-03-08T00:20:08;20.07;;;18.23;;
18893;SDS011;9579;49.488;8.226;2024-03-08T00:22:56;20.50;;;18.50;;
18893;SDS011;9579;49.488;8.226;2024-03-08T00:25:43;19.83;;;17.93;;
18893;SDS011;9579;49.488;8.226;2024-03-08T00:28:31;19.57;;;17.73;;
18893;SDS011;9579;49.488;8.226;2024-03-08T00:31:20;21.40;;;19.40;;
18893;SDS011;9579;49.488;8.226;2024-03-08T00:34:07;20.43;;;18.53;;
18893;SDS011;9579;49.488;8.226;2024-03-08T00:36:57;21.20;;;19.20;;
18893;SDS011;9579;49.488;8.226;2024-03-08T00:39:44;21.20;;;19.30;;
18893;SDS011;9579;49.488;8.226;2024-03-08T00:42:31;20.90;;;18.93;;
18893;SDS011;9579;49.488;8.226;2024-03-08T00:45:18;20.60;;;18.80;;
18893;SDS011;9579;49.488;8.226;2024-03-08T00:48:07;20.67;;;18.77;;
18893;SDS011;9579;49.488;8.226;2024-03-08T00:50:54;20.27;;;18.37;;
18893;SDS011;9579;49.488;8.226;2024-03-08T00:53:41;20.63;;;18.73;;
18893;SDS011;9579;49.488;8.226;2024-03-08T00:56:28;22.60;;;20.50;;
18893;SDS011;9579;49.488;8.226;2024-03-08T00:59:15;22.00;;;19.90;;
18893;SDS011;9579;49.488;8.226;2024-03-08T01:02:02;22.10;;;20.10;;
18893;SDS011;9579;49.488;8.226;2024-03-08T01:04:51;24.23;;;21.73;;
18893;SDS011;9579;49.488;8.226;2024-03-08T01:07:38;21.90;;;19.80;;
18893;SDS011;9579;49.488;8.226;2024-03-08T01:10:25;23.60;;;21.33;;
18893;SDS011;9579;49.488;8.226;2024-03-08T01:13:13;21.33;;;19.33;;
18893;SDS011;9579;49.488;8.226;2024-03-08T01:16:00;23.50;;;21.10;;
18893;SDS011;9579;49.488;8.226;2024-03-08T01:18:47;21.20;;;19.20;;
18893;SDS011;9579;49.488;8.226;2024-03-08T01:21:35;23.30;;;21.10;;
18893;SDS011;9579;49.488;8.226;2024-03-08T01:24:22;23.67;;;21.43;;
18893;SDS011;9579;49.488;8.226;2024-03-08T01:27:10;23.60;;;21.40;;
18893;SDS011;9579;49.488;8.226;2024-03-08T01:29:57;21.77;;;19.60;;
18893;SDS011;9579;49.488;8.226;2024-03-08T01:32:45;24.17;;;21.97;;
18893;SDS011;9579;49.488;8.226;2024-03-08T01:35:32;24.13;;;21.83;;
18893;SDS011;9579;49.488;8.226;2024-03-08T01:38:21;23.53;;;21.33;;
18893;SDS011;9579;49.488;8.226;2024-03-08T01:41:08;24.57;;;22.17;;
18893;SDS011;9579;49.488;8.226;2024-03-08T01:43:55;23.20;;;21.07;;
18893;SDS011;9579;49.488;8.226;2024-03-08T01:46:42;22.43;;;20.33;;
18893;SDS011;9579;49.488;8.226;2024-03-08T01:49:30;22.50;;;20.40;;
18893;SDS011;9579;49.488;8.226;2024-03-08T01:52:18;22.47;;;20.37;;
18893;SDS011;9579;49.488;8.226;2024-03-08T01:55:07;23.23;;;20.90;;
18893;SDS011;9579;49.488;8.226;2024-03-08T01:57:55;23.70;;;21.40;;
18893;SDS011;9579;49.488;8.226;2024-03-08T02:00:43;23.90;;;21.60;;
18893;SDS011;9579;49.488;8.226;2024-03-08T02:03:31;22.80;;;20.70;;
18893;SDS011;9579;49.488;8.226;2024-03-08T02:06:18;22.20;;;20.00;;
18893;SDS011;9579;49.488;8.226;2024-03-08T02:09:05;23.30;;;21.17;;
18893;SDS011;9579;49.488;8.226;2024-03-08T02:11:54;23.40;;;21.23;;
18893;SDS011;9579;49.488;8.226;2024-03-08T02:14:42;23.27;;;21.07;;
18893;SDS011;9579;49.488;8.226;2024-03-08T02:17:30;22.97;;;20.87;;
18893;SDS011;9579;49.488;8.226;2024-03-08T02:20:17;23.97;;;21.77;;
18893;SDS011;9579;49.488;8.226;2024-03-08T02:23:06;24.27;;;22.07;;
18893;SDS011;9579;49.488;8.226;2024-03-08T02:25:54;22.97;;;20.67;;
18893;SDS011;9579;49.488;8.226;2024-03-08T02:28:42;24.00;;;21.70;;
18893;SDS011;9579;49.488;8.226;2024-03-08T02:31:30;23.60;;;21.43;;
18893;SDS011;9579;49.488;8.226;2024-03-08T02:34:18;22.70;;;20.50;;
18893;SDS011;9579;49.488;8.226;2024-03-08T02:37:05;24.50;;;22.20;;
18893;SDS011;9579;49.488;8.226;2024-03-08T02:39:56;23.80;;;21.50;;
18893;SDS011;9579;49.488;8.226;2024-03-08T02:42:43;24.87;;;22.57;;
18893;SDS011;9579;49.488;8.226;2024-03-08T02:45:30;23.23;;;21.13;;
18893;SDS011;9579;49.488;8.226;2024-03-08T02:48:17;24.30;;;21.90;;
18893;SDS011;9579;49.488;8.226;2024-03-08T02:51:04;24.63;;;22.33;;
18893;SDS011;9579;49.488;8.226;2024-03-08T02:53:52;25.43;;;23.07;;
18893;SDS011;9579;49.488;8.226;2024-03-08T02:56:40;24.77;;;22.47;;
18893;SDS011;9579;49.488;8.226;2024-03-08T02:59:27;24.93;;;22.57;;
18893;SDS011;9579;49.488;8.226;2024-03-08T03:02:14;25.07;;;22.83;;
18893;SDS011;9579;49.488;8.226;2024-03-08T03:05:01;25.37;;;23.00;;
18893;SDS011;9579;49.488;8.226;2024-03-08T03:07:51;26.27;;;23.77;;
18893;SDS011;9579;49.488;8.226;2024-03-08T03:10:38;26.57;;;24.07;;
18893;SDS011;9579;49.488;8.226;2024-03-08T03:17:08;26.20;;;23.70;;
18893;SDS011;9579;49.488;8.226;2024-03-08T03:19:56;25.50;;;23.07;;
18893;SDS011;9579;49.488;8.226;2024-03-08T03:22:43;25.57;;;23.17;;
18893;SDS011;9579;49.488;8.226;2024-03-08T03:25:32;25.13;;;22.83;;
18893;SDS011;9579;49.488;8.226;2024-03-08T03:28:20;25.63;;;23.23;;
18893;SDS011;9579;49.488;8.226;2024-03-08T03:31:09;24.97;;;22.67;;
18893;SDS011;9579;49.488;8.226;2024-03-08T03:34:00;25.23;;;22.83;;
18893;SDS011;9579;49.488;8.226;2024-03-08T03:36:49;28.03;;;25.37;;
18893;SDS011;9579;49.488;8.226;2024-03-08T03:39:36;24.83;;;22.63;;
18893;SDS011;9579;49.488;8.226;2024-03-08T03:42:33;24.87;;;22.53;;
18893;SDS011;9579;49.488;8.226;2024-03-08T03:45:20;23.50;;;21.30;;
18893;SDS011;9579;49.488;8.226;2024-03-08T03:48:07;25.77;;;23.37;;
18893;SDS011;9579;49.488;8.226;2024-03-08T03:50:56;23.37;;;21.17;;
18893;SDS011;9579;49.488;8.226;2024-03-08T03:53:43;24.80;;;22.40;;
18893;SDS011;9579;49.488;8.226;2024-03-08T03:56:30;25.70;;;23.30;;
18893;SDS011;9579;49.488;8.226;2024-03-08T03:59:17;26.10;;;23.60;;
18893;SDS011;9579;49.488;8.226;2024-03-08T04:02:04;26.07;;;23.60;;
18893;SDS011;9579;49.488;8.226;2024-03-08T04:04:51;25.80;;;23.43;;
18893;SDS011;9579;49.488;8.226;2024-03-08T04:07:39;25.53;;;23.13;;
18893;SDS011;9579;49.488;8.226;2024-03-08T04:10:26;26.80;;;24.20;;
18893;SDS011;9579;49.488;8.226;2024-03-08T04:13:13;26.80;;;24.40;;
18893;SDS011;9579;49.488;8.226;2024-03-08T04:16:01;25.83;;;23.33;;
18893;SDS011;9579;49.488;8.226;2024-03-08T04:18:47;25.50;;;23.03;;
18893;SDS011;9579;49.488;8.226;2024-03-08T04:21:34;22.67;;;20.57;;
18893;SDS011;9579;49.488;8.226;2024-03-08T04:24:23;24.37;;;21.97;;
18893;SDS011;9579;49.488;8.226;2024-03-08T04:27:10;25.17;;;22.80;;
18893;SDS011;9579;49.488;8.226;2024-03-08T04:29:58;25.60;;;23.20;;
18893;SDS011;9579;49.488;8.226;2024-03-08T04:32:45;23.93;;;21.63;;
18893;SDS011;9579;49.488;8.226;2024-03-08T04:35:32;22.77;;;20.67;;
18893;SDS011;9579;49.488;8.226;2024-03-08T04:38:19;24.43;;;22.20;;
18893;SDS011;9579;49.488;8.226;2024-03-08T04:41:08;22.93;;;20.73;;
18893;SDS011;9579;49.488;8.226;2024-03-08T04:43:55;23.80;;;21.60;;
18893;SDS011;9579;49.488;8.226;2024-03-08T04:46:43;21.63;;;19.73;;
18893;SDS011;9579;49.488;8.226;2024-03-08T04:49:31;22.73;;;20.53;;
18893;SDS011;9579;49.488;8.226;2024-03-08T04:52:19;21.47;;;19.47;;
18893;SDS011;9579;49.488;8.226;2024-03-08T04:55:07;20.40;;;18.50;;
18893;SDS011;9579;49.488;8.226;2024-03-08T04:57:55;22.83;;;20.83;;
18893;SDS011;9579;49.488;8.226;2024-03-08T05:00:42;22.10;;;20.10;;
18893;SDS011;9579;49.488;8.226;2024-03-08T05:03:29;22.63;;;20.57;;
18893;SDS011;9579;49.488;8.226;2024-03-08T05:06:16;23.07;;;20.97;;
18893;SDS011;9579;49.488;8.226;2024-03-08T05:09:03;24.90;;;22.60;;
18893;SDS011;9579;49.488;8.226;2024-03-08T05:11:58;24.97;;;22.67;;
18893;SDS011;9579;49.488;8.226;2024-03-08T05:14:48;23.80;;;21.50;;
18893;SDS011;9579;49.488;8.226;2024-03-08T05:17:35;24.03;;;21.83;;
18893;SDS011;9579;49.488;8.226;2024-03-08T05:20:22;25.93;;;23.43;;
18893;SDS011;9579;49.488;8.226;2024-03-08T05:23:09;25.03;;;22.73;;
18893;SDS011;9579;49.488;8.226;2024-03-08T05:25:56;26.87;;;24.40;;
18893;SDS011;9579;49.488;8.226;2024-03-08T05:28:43;30.80;;;27.93;;
18893;SDS011;9579;49.488;8.226;2024-03-08T05:31:32;30.57;;;27.80;;
18893;SDS011;9579;49.488;8.226;2024-03-08T05:34:29;27.63;;;25.13;;
18893;SDS011;9579;49.488;8.226;2024-03-08T05:37:16;28.13;;;25.43;;
18893;SDS011;9579;49.488;8.226;2024-03-08T05:40:05;25.57;;;23.17;;
18893;SDS011;9579;49.488;8.226;2024-03-08T05:42:55;27.10;;;24.50;;
18893;SDS011;9579;49.488;8.226;2024-03-08T05:45:42;33.73;;;30.43;;
18893;SDS011;9579;49.488;8.226;2024-03-08T05:48:30;33.23;;;29.87;;
18893;SDS011;9579;49.488;8.226;2024-03-08T05:51:18;28.60;;;25.90;;
18893;SDS011;9579;49.488;8.226;2024-03-08T05:54:07;26.83;;;24.23;;
18893;SDS011;9579;49.488;8.226;2024-03-08T05:56:55;27.53;;;24.83;;
18893;SDS011;9579;49.488;8.226;2024-03-08T05:59:42;26.50;;;23.93;;
18893;SDS011;9579;49.488;8.226;2024-03-08T06:02:29;23.30;;;21.13;;
18893;SDS011;9579;49.488;8.226;2024-03-08T06:05:17;24.70;;;22.50;;
18893;SDS011;9579;49.488;8.226;2024-03-08T06:08:05;27.43;;;24.83;;
18893;SDS011;9579;49.488;8.226;2024-03-08T06:10:53;28.73;;;26.03;;
18893;SDS011;9579;49.488;8.226;2024-03-08T06:13:40;36.57;;;33.30;;
18893;SDS011;9579;49.488;8.226;2024-03-08T06:16:27;34.53;;;31.50;;
18893;SDS011;9579;49.488;8.226;2024-03-08T06:19:14;27.63;;;25.07;;
18893;SDS011;9579;49.488;8.226;2024-03-08T06:22:02;27.50;;;24.90;;
18893;SDS011;9579;49.488;8.226;2024-03-08T06:24:51;25.93;;;23.53;;
18893;SDS011;9579;49.488;8.226;2024-03-08T06:27:39;24.80;;;22.53;;
18893;SDS011;9579;49.488;8.226;2024-03-08T06:30:27;23.43;;;21.23;;
18893;SDS011;9579;49.488;8.226;2024-03-08T06:33:14;41.37;;;37.33;;
18893;SDS011;9579;49.488;8.226;2024-03-08T06:36:01;42.47;;;38.37;;
18893;SDS011;9579;49.488;8.226;2024-03-08T06:38:50;36.87;;;33.17;;
18893;SDS011;9579;49.488;8.226;2024-03-08T06:41:37;29.03;;;26.30;;
18893;SDS011;9579;49.488;8.226;2024-03-08T06:44:24;29.33;;;26.60;;
18893;SDS011;9579;49.488;8.226;2024-03-08T06:47:12;29.13;;;26.43;;
18893;SDS011;9579;49.488;8.226;2024-03-08T06:50:00;27.53;;;25.03;;
18893;SDS011;9579;49.488;8.226;2024-03-08T06:52:47;27.07;;;24.57;;
18893;SDS011;9579;49.488;8.226;2024-03-08T06:55:40;28.13;;;25.50;;
18893;SDS011;9579;49.488;8.226;2024-03-08T06:58:27;24.17;;;21.87;;
18893;SDS011;9579;49.488;8.226;2024-03-08T07:01:14;22.23;;;20.20;;
18893;SDS011;9579;49.488;8.226;2024-03-08T07:04:02;22.00;;;19.90;;
18893;SDS011;9579;49.488;8.226;2024-03-08T07:06:50;22.73;;;20.63;;
18893;SDS011;9579;49.488;8.226;2024-03-08T07:09:37;23.63;;;21.23;;
18893;SDS011;9579;49.488;8.226;2024-03-08T07:12:26;22.50;;;20.40;;
18893;SDS011;9579;49.488;8.226;2024-03-08T07:15:13;25.50;;;23.17;;
18893;SDS011;9579;49.488;8.226;2024-03-08T07:18:00;22.77;;;20.67;;
18893;SDS011;9579;49.488;8.226;2024-03-08T07:20:47;24.07;;;21.77;;
18893;SDS011;9579;49.488;8.226;2024-03-08T07:23:35;21.83;;;19.77;;
18893;SDS011;9579;49.488;8.226;2024-03-08T07:26:48;22.60;;;20.40;;
18893;SDS011;9579;49.488;8.226;2024-03-08T07:29:38;24.47;;;22.17;;
18893;SDS011;9579;49.488;8.226;2024-03-08T07:32:25;22.20;;;20.10;;
18893;SDS011;9579;49.488;8.226;2024-03-08T07:35:15;21.73;;;19.83;;
18893;SDS011;9579;49.488;8.226;2024-03-08T07:38:04;21.40;;;19.37;;
18893;SDS011;9579;49.488;8.226;2024-03-08T07:40:51;21.20;;;19.20;;
18893;SDS011;9579;49.488;8.226;2024-03-08T07:43:38;19.90;;;18.10;;
18893;SDS011;9579;49.488;8.226;2024-03-08T07:46:26;20.13;;;18.20;;
18893;SDS011;9579;49.488;8.226;2024-03-08T07:49:14;20.73;;;18.73;;
18893;SDS011;9579;49.488;8.226;2024-03-08T07:52:01;20.63;;;18.73;;
18893;SDS011;9579;49.488;8.226;2024-03-08T07:54:49;22.40;;;20.40;;
18893;SDS011;9579;49.488;8.226;2024-03-08T07:57:36;20.63;;;18.63;;
18893;SDS011;9579;49.488;8.226;2024-03-08T08:00:24;22.33;;;20.13;;
18893;SDS011;9579;49.488;8.226;2024-03-08T08:03:14;21.43;;;19.33;;
18893;SDS011;9579;49.488;8.226;2024-03-08T08:06:01;21.17;;;19.17;;
18893;SDS011;9579;49.488;8.226;2024-03-08T08:08:49;21.80;;;19.70;;
18893;SDS011;9579;49.488;8.226;2024-03-08T08:11:36;21.60;;;19.60;;
18893;SDS011;9579;49.488;8.226;2024-03-08T08:14:23;21.40;;;19.40;;
18893;SDS011;9579;49.488;8.226;2024-03-08T08:17:11;23.17;;;20.87;;
18893;SDS011;9579;49.488;8.226;2024-03-08T08:20:00;21.20;;;19.20;;
18893;SDS011;9579;49.488;8.226;2024-03-08T08:22:50;20.63;;;18.67;;
18893;SDS011;9579;49.488;8.226;2024-03-08T08:25:37;20.93;;;19.03;;
18893;SDS011;9579;49.488;8.226;2024-03-08T08:28:24;21.50;;;19.50;;
18893;SDS011;9579;49.488;8.226;2024-03-08T08:31:11;22.03;;;20.03;;
18893;SDS011;9579;49.488;8.226;2024-03-08T08:33:58;21.63;;;19.60;;
18893;SDS011;9579;49.488;8.226;2024-03-08T08:36:47;21.77;;;19.67;;
18893;SDS011;9579;49.488;8.226;2024-03-08T08:39:34;21.47;;;19.37;;
18893;SDS011;9579;49.488;8.226;2024-03-08T08:42:21;21.70;;;19.47;;
18893;SDS011;9579;49.488;8.226;2024-03-08T08:45:08;20.37;;;18.40;;
18893;SDS011;9579;49.488;8.226;2024-03-08T08:47:56;19.73;;;17.93;;
18893;SDS011;9579;49.488;8.226;2024-03-08T08:50:45;23.00;;;20.83;;
18893;SDS011;9579;49.488;8.226;2024-03-08T08:53:33;21.93;;;19.90;;
18893;SDS011;9579;49.488;8.226;2024-03-08T08:56:21;20.57;;;18.67;;
18893;SDS011;9579;49.488;8.226;2024-03-08T08:59:08;21.60;;;19.57;;
18893;SDS011;9579;49.488;8.226;2024-03-08T09:01:55;21.27;;;19.27;;
18893;SDS011;9579;49.488;8.226;2024-03-08T09:04:42;20.80;;;18.70;;
18893;SDS011;9579;49.488;8.226;2024-03-08T09:07:29;20.30;;;18.43;;
18893;SDS011;9579;49.488;8.226;2024-03-08T09:10:17;20.23;;;18.33;;
18893;SDS011;9579;49.488;8.226;2024-03-08T09:13:04;21.27;;;19.37;;
18893;SDS011;9579;49.488;8.226;2024-03-08T09:15:51;20.97;;;19.07;;
18893;SDS011;9579;49.488;8.226;2024-03-08T09:18:38;21.87;;;19.77;;
18893;SDS011;9579;49.488;8.226;2024-03-08T09:21:27;20.67;;;18.77;;
18893;SDS011;9579;49.488;8.226;2024-03-08T09:24:14;20.80;;;18.90;;
18893;SDS011;9579;49.488;8.226;2024-03-08T09:27:03;22.50;;;20.40;;
18893;SDS011;9579;49.488;8.226;2024-03-08T09:29:50;22.10;;;20.00;;
18893;SDS011;9579;49.488;8.226;2024-03-08T09:32:37;22.97;;;20.90;;
18893;SDS011;9579;49.488;8.226;2024-03-08T09:35:24;21.60;;;19.50;;
18893;SDS011;9579;49.488;8.226;2024-03-08T09:38:12;22.20;;;20.00;;
18893;SDS011;9579;49.488;8.226;2024-03-08T09:41:00;21.40;;;19.40;;
18893;SDS011;9579;49.488;8.226;2024-03-08T09:43:50;21.60;;;19.70;;
18893;SDS011;9579;49.488;8.226;2024-03-08T09:46:38;20.83;;;18.83;;
18893;SDS011;9579;49.488;8.226;2024-03-08T09:49:25;22.37;;;20.23;;
18893;SDS011;9579;49.488;8.226;2024-03-08T09:52:12;21.53;;;19.53;;
18893;SDS011;9579;49.488;8.226;2024-03-08T09:55:01;21.50;;;19.50;;
18893;SDS011;9579;49.488;8.226;2024-03-08T09:57:48;21.50;;;19.50;;
18893;SDS011;9579;49.488;8.226;2024-03-08T10:00:51;21.27;;;19.27;;
18893;SDS011;9579;49.488;8.226;2024-03-08T10:03:38;22.27;;;20.17;;
18893;SDS011;9579;49.488;8.226;2024-03-08T10:06:25;22.13;;;20.00;;
18893;SDS011;9579;49.488;8.226;2024-03-08T10:09:12;20.67;;;18.77;;
18893;SDS011;9579;49.488;8.226;2024-03-08T10:11:59;21.67;;;19.67;;
18893;SDS011;9579;49.488;8.226;2024-03-08T10:14:47;21.13;;;19.20;;
18893;SDS011;9579;49.488;8.226;2024-03-08T10:17:35;21.50;;;19.50;;
18893;SDS011;9579;49.488;8.226;2024-03-08T10:20:25;21.53;;;19.63;;
18893;SDS011;9579;49.488;8.226;2024-03-08T10:23:12;21.20;;;19.30;;
18893;SDS011;9579;49.488;8.226;2024-03-08T10:26:09;21.73;;;19.73;;
18893;SDS011;9579;49.488;8.226;2024-03-08T10:29:00;20.73;;;18.83;;
18893;SDS011;9579;49.488;8.226;2024-03-08T10:31:50;21.37;;;19.47;;
18893;SDS011;9579;49.488;8.226;2024-03-08T10:34:39;20.70;;;18.80;;
18893;SDS011;9579;49.488;8.226;2024-03-08T10:37:27;21.73;;;19.80;;
18893;SDS011;9579;49.488;8.226;2024-03-08T10:40:19;21.10;;;19.17;;
18893;SDS011;9579;49.488;8.226;2024-03-08T10:43:06;21.40;;;19.47;;
18893;SDS011;9579;49.488;8.226;2024-03-08T10:46:01;21.37;;;19.37;;
18893;SDS011;9579;49.488;8.226;2024-03-08T10:49:00;20.83;;;18.93;;
18893;SDS011;9579;49.488;8.226;2024-03-08T10:51:54;19.87;;;17.97;;
18893;SDS011;9579;49.488;8.226;2024-03-08T10:54:42;19.27;;;17.40;;
18893;SDS011;9579;49.488;8.226;2024-03-08T10:57:31;21.60;;;19.60;;
18893;SDS011;9579;49.488;8.226;2024-03-08T11:00:18;19.60;;;17.70;;
18893;SDS011;9579;49.488;8.226;2024-03-08T11:06:30;18.47;;;16.77;;
18893;SDS011;9579;49.488;8.226;2024-03-08T11:09:29;19.27;;;17.57;;
18893;SDS011;9579;49.488;8.226;2024-03-08T11:12:20;20.33;;;18.53;;
18893;SDS011;9579;49.488;8.226;2024-03-08T11:15:10;20.27;;;18.37;;
18893;SDS011;9579;49.488;8.226;2024-03-08T11:17:59;21.13;;;19.03;;
18893;SDS011;9579;49.488;8.226;2024-03-08T11:20:47;19.57;;;17.80;;
18893;SDS011;9579;49.488;8.226;2024-03-08T11:23:35;21.37;;;19.37;;
18893;SDS011;9579;49.488;8.226;2024-03-08T11:26:24;21.33;;;19.33;;
18893;SDS011;9579;49.488;8.226;2024-03-08T11:32:21;21.10;;;19.20;;
18893;SDS011;9579;49.488;8.226;2024-03-08T11:35:10;20.93;;;18.93;;
18893;SDS011;9579;49.488;8.226;2024-03-08T11:38:05;20.37;;;18.37;;
18893;SDS011;9579;49.488;8.226;2024-03-08T11:40:56;20.90;;;19.00;;
18893;SDS011;9579;49.488;8.226;2024-03-08T11:43:45;20.40;;;18.40;;
18893;SDS011;9579;49.488;8.226;2024-03-08T11:46:32;19.30;;;17.53;;
18893;SDS011;9579;49.488;8.226;2024-03-08T11:49:19;19.83;;;17.93;;
18893;SDS011;9579;49.488;8.226;2024-03-08T11:52:09;19.50;;;17.80;;
18893;SDS011;9579;49.488;8.226;2024-03-08T11:54:58;19.47;;;17.67;;
18893;SDS011;9579;49.488;8.226;2024-03-08T11:57:45;19.07;;;17.13;;
18893;SDS011;9579;49.488;8.226;2024-03-08T12:00:34;21.10;;;19.17;;
18893;SDS011;9579;49.488;8.226;2024-03-08T12:03:23;19.70;;;17.90;;
18893;SDS011;9579;49.488;8.226;2024-03-08T12:06:10;20.80;;;18.90;;
18893;SDS011;9579;49.488;8.226;2024-03-08T12:08:58;20.33;;;18.43;;
18893;SDS011;9579;49.488;8.226;2024-03-08T12:11:47;19.77;;;17.97;;
18893;SDS011;9579;49.488;8.226;2024-03-08T12:14:34;20.07;;;18.17;;
18893;SDS011;9579;49.488;8.226;2024-03-08T12:17:23;18.50;;;16.80;;
18893;SDS011;9579;49.488;8.226;2024-03-08T12:20:11;19.70;;;17.90;;
18893;SDS011;9579;49.488;8.226;2024-03-08T12:22:59;18.63;;;16.83;;
18893;SDS011;9579;49.488;8.226;2024-03-08T12:25:46;19.35;;;17.65;;
18893;SDS011;9579;49.488;8.226;2024-03-08T12:28:34;20.05;;;18.23;;
18893;SDS011;9579;49.488;8.226;2024-03-08T12:31:21;19.08;;;17.23;;
18893;SDS011;9579;49.488;8.226;2024-03-08T12:34:13;20.65;;;18.75;;
18893;SDS011;9579;49.488;8.226;2024-03-08T12:37:00;19.88;;;18.08;;
18893;SDS011;9579;49.488;8.226;2024-03-08T12:39:47;19.30;;;17.50;;
18893;SDS011;9579;49.488;8.226;2024-03-08T12:42:34;17.98;;;16.38;;
18893;SDS011;9579;49.488;8.226;2024-03-08T12:45:22;19.77;;;17.98;;
18893;SDS011;9579;49.488;8.226;2024-03-08T12:48:12;20.27;;;18.45;;
18893;SDS011;9579;49.488;8.226;2024-03-08T12:51:02;18.77;;;17.02;;
18893;SDS011;9579;49.488;8.226;2024-03-08T12:53:49;21.30;;;19.40;;
18893;SDS011;9579;49.488;8.226;2024-03-08T12:56:41;21.42;;;19.38;;
18893;SDS011;9579;49.488;8.226;2024-03-08T12:59:28;19.35;;;17.55;;
18893;SDS011;9579;49.488;8.226;2024-03-08T13:02:15;19.48;;;17.67;;
18893;SDS011;9579;49.488;8.226;2024-03-08T13:05:02;18.95;;;17.25;;
18893;SDS011;9579;49.488;8.226;2024-03-08T13:07:51;20.73;;;18.85;;
18893;SDS011;9579;49.488;8.226;2024-03-08T13:10:40;19.73;;;17.88;;
18893;SDS011;9579;49.488;8.226;2024-03-08T13:13:28;19.80;;;18.05;;
18893;SDS011;9579;49.488;8.226;2024-03-08T13:16:15;18.55;;;16.85;;
18893;SDS011;9579;49.488;8.226;2024-03-08T13:19:04;20.30;;;18.35;;
18893;SDS011;9579;49.488;8.226;2024-03-08T13:21:51;20.70;;;18.70;;
18893;SDS011;9579;49.488;8.226;2024-03-08T13:24:40;19.27;;;17.48;;
18893;SDS011;9579;49.488;8.226;2024-03-08T13:27:27;20.05;;;18.15;;
18893;SDS011;9579;49.488;8.226;2024-03-08T13:30:14;21.17;;;19.27;;
18893;SDS011;9579;49.488;8.226;2024-03-08T13:33:03;19.92;;;18.10;;
18893;SDS011;9579;49.488;8.226;2024-03-08T13:35:52;20.20;;;18.38;;
18893;SDS011;9579;49.488;8.226;2024-03-08T13:38:40;19.70;;;17.95;;
18893;SDS011;9579;49.488;8.226;2024-03-08T13:41:29;19.65;;;17.85;;
18893;SDS011;9579;49.488;8.226;2024-03-08T13:44:16;19.30;;;17.60;;
18893;SDS011;9579;49.488;8.226;2024-03-08T13:47:03;20.73;;;18.83;;
18893;SDS011;9579;49.488;8.226;2024-03-08T13:49:52;18.98;;;17.38;;
18893;SDS011;9579;49.488;8.226;2024-03-08T13:52:39;20.85;;;18.85;;
18893;SDS011;9579;49.488;8.226;2024-03-08T13:55:27;20.73;;;18.92;;
18893;SDS011;9579;49.488;8.226;2024-03-08T13:58:15;19.75;;;17.95;;
18893;SDS011;9579;49.488;8.226;2024-03-08T14:01:03;20.67;;;18.88;;
18893;SDS011;9579;49.488;8.226;2024-03-08T14:03:56;20.15;;;18.35;;
18893;SDS011;9579;49.488;8.226;2024-03-08T14:06:43;19.85;;;18.08;;
18893;SDS011;9579;49.488;8.226;2024-03-08T14:09:30;19.77;;;17.98;;
18893;SDS011;9579;49.488;8.226;2024-03-08T14:12:17;20.23;;;18.42;;
18893;SDS011;9579;49.488;8.226;2024-03-08T14:15:06;19.30;;;17.58;;
18893;SDS011;9579;49.488;8.226;2024-03-08T14:17:54;20.98;;;19.08;;
18893;SDS011;9579;49.488;8.226;2024-03-08T14:20:42;19.95;;;18.05;;
18893;SDS011;9579;49.488;8.226;2024-03-08T14:23:29;19.38;;;17.67;;
18893;SDS011;9579;49.488;8.226;2024-03-08T14:26:18;21.67;;;19.77;;
18893;SDS011;9579;49.488;8.226;2024-03-08T14:29:06;19.58;;;17.85;;
18893;SDS011;9579;49.488;8.226;2024-03-08T14:31:56;18.90;;;17.20;;
18893;SDS011;9579;49.488;8.226;2024-03-08T14:34:44;18.48;;;16.88;;
18893;SDS011;9579;49.488;8.226;2024-03-08T14:37:31;20.10;;;18.30;;
18893;SDS011;9579;49.488;8.226;2024-03-08T14:40:18;18.92;;;17.13;;
18893;SDS011;9579;49.488;8.226;2024-03-08T14:43:07;18.58;;;16.75;;
18893;SDS011;9579;49.488;8.226;2024-03-08T14:45:55;19.35;;;17.55;;
18893;SDS011;9579;49.488;8.226;2024-03-08T14:48:44;18.88;;;17.17;;
18893;SDS011;9579;49.488;8.226;2024-03-08T14:51:31;18.25;;;16.65;;
18893;SDS011;9579;49.488;8.226;2024-03-08T14:54:18;19.30;;;17.60;;
18893;SDS011;9579;49.488;8.226;2024-03-08T14:57:08;20.08;;;18.25;;
18893;SDS011;9579;49.488;8.226;2024-03-08T14:59:55;18.70;;;17.00;;
18893;SDS011;9579;49.488;8.226;2024-03-08T15:02:42;18.75;;;17.05;;
18893;SDS011;9579;49.488;8.226;2024-03-08T15:05:31;18.85;;;17.15;;
18893;SDS011;9579;49.488;8.226;2024-03-08T15:08:21;19.00;;;17.30;;
18893;SDS011;9579;49.488;8.226;2024-03-08T15:11:09;18.17;;;16.48;;
18893;SDS011;9579;49.488;8.226;2024-03-08T15:13:56;19.75;;;17.90;;
18893;SDS011;9579;49.488;8.226;2024-03-08T15:16:43;19.75;;;17.95;;
18893;SDS011;9579;49.488;8.226;2024-03-08T15:19:33;19.52;;;17.73;;
18893;SDS011;9579;49.488;8.226;2024-03-08T15:22:21;19.25;;;17.55;;
18893;SDS011;9579;49.488;8.226;2024-03-08T15:25:09;18.98;;;17.23;;
18893;SDS011;9579;49.488;8.226;2024-03-08T15:28:02;19.95;;;18.05;;
18893;SDS011;9579;49.488;8.226;2024-03-08T15:30:56;19.40;;;17.60;;
18893;SDS011;9579;49.488;8.226;2024-03-08T15:33:50;20.27;;;18.38;;
18893;SDS011;9579;49.488;8.226;2024-03-08T15:36:45;19.27;;;17.58;;
18893;SDS011;9579;49.488;8.226;2024-03-08T15:39:37;18.52;;;16.83;;
18893;SDS011;9579;49.488;8.226;2024-03-08T15:42:24;20.42;;;18.38;;
18893;SDS011;9579;49.488;8.226;2024-03-08T15:45:11;18.75;;;16.95;;
18893;SDS011;9579;49.488;8.226;2024-03-08T15:47:58;19.33;;;17.52;;
18893;SDS011;9579;49.488;8.226;2024-03-08T15:50:50;19.45;;;17.55;;
18893;SDS011;9579;49.488;8.226;2024-03-08T15:53:37;19.75;;;17.80;;
18893;SDS011;9579;49.488;8.226;2024-03-08T15:56:26;17.58;;;15.98;;
18893;SDS011;9579;49.488;8.226;2024-03-08T15:59:13;18.10;;;16.35;;
18893;SDS011;9579;49.488;8.226;2024-03-08T16:02:01;19.13;;;16.55;;
18893;SDS011;9579;49.488;8.226;2024-03-08T16:04:49;18.10;;;16.40;;
18893;SDS011;9579;49.488;8.226;2024-03-08T16:07:36;17.42;;;15.82;;
18893;SDS011;9579;49.488;8.226;2024-03-08T16:10:23;18.15;;;16.40;;
18893;SDS011;9579;49.488;8.226;2024-03-08T16:13:12;19.00;;;17.20;;
18893;SDS011;9579;49.488;8.226;2024-03-08T16:16:01;20.50;;;18.60;;
18893;SDS011;9579;49.488;8.226;2024-03-08T16:18:48;19.90;;;18.10;;
18893;SDS011;9579;49.488;8.226;2024-03-08T16:21:35;18.40;;;16.60;;
18893;SDS011;9579;49.488;8.226;2024-03-08T16:24:22;17.02;;;15.43;;
18893;SDS011;9579;49.488;8.226;2024-03-08T16:27:09;18.60;;;16.80;;
18893;SDS011;9579;49.488;8.226;2024-03-08T16:29:57;17.98;;;16.05;;
18893;SDS011;9579;49.488;8.226;2024-03-08T16:32:44;18.42;;;16.55;;
18893;SDS011;9579;49.488;8.226;2024-03-08T16:35:33;18.05;;;16.25;;
18893;SDS011;9579;49.488;8.226;2024-03-08T16:38:21;17.75;;;15.95;;
18893;SDS011;9579;49.488;8.226;2024-03-08T16:41:08;18.20;;;16.50;;
18893;SDS011;9579;49.488;8.226;2024-03-08T16:43:57;18.95;;;17.05;;
18893;SDS011;9579;49.488;8.226;2024-03-08T16:46:46;17.70;;;16.00;;